<?xml version="1.0" encoding="UTF-8" standalone="no" ?>
<gpx xmlns="http://www.topografix.com/GPX/1/1" xmlns:xsi="http://www.w3.org/2001/XMLSchema-instance" xsi:schemaLocation="http://www.topografix.com/GPX/1/1 http://www.topografix.com/GPX/1/1/gpx.xsd" version="1.1" creator="VisuGPX - https://www.visugpx.com">
  <metadata>
    <name>Eourres Ribiers</name>
    <desc><![CDATA[Retour, grosse journée!!! Quelques passages techniques (descente après le Col de St Pensier) mettre pied à terre!]]></desc>
  </metadata>
  <trk>
    <name><![CDATA[OR-6610120--Éourres:Eoures Ribiers par le Noyer]]></name>
    <trkseg>
      <trkpt lat="44.21574" lon="5.72128">
        <ele>994</ele>
        <time>2016-11-21T12:36:52Z</time>
      </trkpt>
      <trkpt lat="44.21558" lon="5.71926">
        <ele>971</ele>
        <time>2016-11-21T12:38:52Z</time>
      </trkpt>
      <trkpt lat="44.21614" lon="5.71742">
        <ele>969</ele>
        <time>2016-11-21T12:40:52Z</time>
      </trkpt>
      <trkpt lat="44.21555" lon="5.71836">
        <ele>974</ele>
        <time>2016-11-21T12:42:52Z</time>
      </trkpt>
      <trkpt lat="44.21451" lon="5.71858">
        <ele>991</ele>
        <time>2016-11-21T12:44:52Z</time>
      </trkpt>
      <trkpt lat="44.21515" lon="5.71733">
        <ele>991</ele>
        <time>2016-11-21T12:46:52Z</time>
      </trkpt>
      <trkpt lat="44.2142" lon="5.71733">
        <ele>1010</ele>
        <time>2016-11-21T12:48:52Z</time>
      </trkpt>
      <trkpt lat="44.2146" lon="5.71596">
        <ele>1016</ele>
        <time>2016-11-21T12:50:52Z</time>
      </trkpt>
      <trkpt lat="44.21463" lon="5.71394">
        <ele>1022</ele>
        <time>2016-11-21T12:52:52Z</time>
      </trkpt>
      <trkpt lat="44.21623" lon="5.71154">
        <ele>1013</ele>
        <time>2016-11-21T12:54:52Z</time>
      </trkpt>
      <trkpt lat="44.2178" lon="5.70815">
        <ele>1018</ele>
        <time>2016-11-21T12:56:52Z</time>
      </trkpt>
      <trkpt lat="44.21826" lon="5.70652">
        <ele>1005</ele>
        <time>2016-11-21T12:58:52Z</time>
      </trkpt>
      <trkpt lat="44.21786" lon="5.70514">
        <ele>1000</ele>
        <time>2016-11-21T13:00:52Z</time>
      </trkpt>
      <trkpt lat="44.2166" lon="5.7048">
        <ele>1010</ele>
        <time>2016-11-21T13:02:52Z</time>
      </trkpt>
      <trkpt lat="44.21598" lon="5.70356">
        <ele>995</ele>
        <time>2016-11-21T13:04:52Z</time>
      </trkpt>
      <trkpt lat="44.21512" lon="5.7024">
        <ele>991</ele>
        <time>2016-11-21T13:06:52Z</time>
      </trkpt>
      <trkpt lat="44.21432" lon="5.70184">
        <ele>982</ele>
        <time>2016-11-21T13:08:52Z</time>
      </trkpt>
      <trkpt lat="44.21371" lon="5.70132">
        <ele>981</ele>
        <time>2016-11-21T13:10:52Z</time>
      </trkpt>
      <trkpt lat="44.21383" lon="5.70051">
        <ele>968</ele>
        <time>2016-11-21T13:12:52Z</time>
      </trkpt>
      <trkpt lat="44.21254" lon="5.69926">
        <ele>966</ele>
        <time>2016-11-21T13:14:52Z</time>
      </trkpt>
      <trkpt lat="44.21201" lon="5.69974">
        <ele>970</ele>
        <time>2016-11-21T13:16:52Z</time>
      </trkpt>
      <trkpt lat="44.21176" lon="5.70098">
        <ele>991</ele>
        <time>2016-11-21T13:18:52Z</time>
      </trkpt>
      <trkpt lat="44.21232" lon="5.7015">
        <ele>1001</ele>
        <time>2016-11-21T13:20:52Z</time>
      </trkpt>
      <trkpt lat="44.21229" lon="5.70205">
        <ele>1008</ele>
        <time>2016-11-21T13:22:52Z</time>
      </trkpt>
      <trkpt lat="44.21186" lon="5.70171">
        <ele>1006</ele>
        <time>2016-11-21T13:24:52Z</time>
      </trkpt>
      <trkpt lat="44.21136" lon="5.7021">
        <ele>1016</ele>
        <time>2016-11-21T13:26:52Z</time>
      </trkpt>
      <trkpt lat="44.21019" lon="5.70283">
        <ele>1040</ele>
        <time>2016-11-21T13:28:52Z</time>
      </trkpt>
      <trkpt lat="44.20927" lon="5.70171">
        <ele>1034</ele>
        <time>2016-11-21T13:30:52Z</time>
      </trkpt>
      <trkpt lat="44.20952" lon="5.70248">
        <ele>1042</ele>
        <time>2016-11-21T13:32:52Z</time>
      </trkpt>
      <trkpt lat="44.20881" lon="5.70287">
        <ele>1066</ele>
        <time>2016-11-21T13:34:52Z</time>
      </trkpt>
      <trkpt lat="44.20786" lon="5.70248">
        <ele>1085</ele>
        <time>2016-11-21T13:36:52Z</time>
      </trkpt>
      <trkpt lat="44.20773" lon="5.70192">
        <ele>1081</ele>
        <time>2016-11-21T13:38:52Z</time>
      </trkpt>
      <trkpt lat="44.20669" lon="5.70222">
        <ele>1110</ele>
        <time>2016-11-21T13:40:52Z</time>
      </trkpt>
      <trkpt lat="44.20604" lon="5.70218">
        <ele>1120</ele>
        <time>2016-11-21T13:42:52Z</time>
      </trkpt>
      <trkpt lat="44.2054" lon="5.70227">
        <ele>1135</ele>
        <time>2016-11-21T13:44:52Z</time>
      </trkpt>
      <trkpt lat="44.20361" lon="5.70338">
        <ele>1195</ele>
        <time>2016-11-21T13:46:52Z</time>
      </trkpt>
      <trkpt lat="44.20275" lon="5.70368">
        <ele>1214</ele>
        <time>2016-11-21T13:48:52Z</time>
      </trkpt>
      <trkpt lat="44.20252" lon="5.70331">
        <ele>1216</ele>
        <time>2016-11-21T13:50:52Z</time>
      </trkpt>
      <trkpt lat="44.20188" lon="5.70383">
        <ele>1228</ele>
        <time>2016-11-21T13:52:52Z</time>
      </trkpt>
      <trkpt lat="44.20122" lon="5.70402">
        <ele>1241</ele>
        <time>2016-11-21T13:54:52Z</time>
      </trkpt>
      <trkpt lat="44.20018" lon="5.70458">
        <ele>1264</ele>
        <time>2016-11-21T13:56:52Z</time>
      </trkpt>
      <trkpt lat="44.19912" lon="5.70533">
        <ele>1287</ele>
        <time>2016-11-21T13:58:52Z</time>
      </trkpt>
      <trkpt lat="44.19766" lon="5.70565">
        <ele>1310</ele>
        <time>2016-11-21T14:00:52Z</time>
      </trkpt>
      <trkpt lat="44.19655" lon="5.70595">
        <ele>1317</ele>
        <time>2016-11-21T14:02:52Z</time>
      </trkpt>
      <trkpt lat="44.19608" lon="5.70726">
        <ele>1328</ele>
        <time>2016-11-21T14:04:52Z</time>
      </trkpt>
      <trkpt lat="44.19606" lon="5.70947">
        <ele>1384</ele>
        <time>2016-11-21T14:06:52Z</time>
      </trkpt>
      <trkpt lat="44.1972" lon="5.71095">
        <ele>1416</ele>
        <time>2016-11-21T14:08:52Z</time>
      </trkpt>
      <trkpt lat="44.19797" lon="5.71194">
        <ele>1447</ele>
        <time>2016-11-21T14:10:52Z</time>
      </trkpt>
      <trkpt lat="44.19891" lon="5.71363">
        <ele>1511</ele>
        <time>2016-11-21T14:12:52Z</time>
      </trkpt>
      <trkpt lat="44.2002" lon="5.71419">
        <ele>1540</ele>
        <time>2016-11-21T14:14:52Z</time>
      </trkpt>
      <trkpt lat="44.20112" lon="5.7152">
        <ele>1573</ele>
        <time>2016-11-21T14:16:52Z</time>
      </trkpt>
      <trkpt lat="44.2012" lon="5.71874">
        <ele>1545</ele>
        <time>2016-11-21T14:18:52Z</time>
      </trkpt>
      <trkpt lat="44.20137" lon="5.72352">
        <ele>1531</ele>
        <time>2016-11-21T14:20:52Z</time>
      </trkpt>
      <trkpt lat="44.20089" lon="5.72773">
        <ele>1547</ele>
        <time>2016-11-21T14:22:52Z</time>
      </trkpt>
      <trkpt lat="44.20017" lon="5.7293">
        <ele>1539</ele>
        <time>2016-11-21T14:24:52Z</time>
      </trkpt>
      <trkpt lat="44.20042" lon="5.73091">
        <ele>1550</ele>
        <time>2016-11-21T14:26:52Z</time>
      </trkpt>
      <trkpt lat="44.20025" lon="5.73318">
        <ele>1552</ele>
        <time>2016-11-21T14:28:52Z</time>
      </trkpt>
      <trkpt lat="44.20125" lon="5.73475">
        <ele>1560</ele>
        <time>2016-11-21T14:30:52Z</time>
      </trkpt>
      <trkpt lat="44.20237" lon="5.73657">
        <ele>1563</ele>
        <time>2016-11-21T14:32:52Z</time>
      </trkpt>
      <trkpt lat="44.20252" lon="5.73979">
        <ele>1558</ele>
        <time>2016-11-21T14:34:52Z</time>
      </trkpt>
      <trkpt lat="44.20286" lon="5.742">
        <ele>1525</ele>
        <time>2016-11-21T14:36:52Z</time>
      </trkpt>
      <trkpt lat="44.20358" lon="5.74477">
        <ele>1500</ele>
        <time>2016-11-21T14:38:52Z</time>
      </trkpt>
      <trkpt lat="44.20492" lon="5.74681">
        <ele>1483</ele>
        <time>2016-11-21T14:40:52Z</time>
      </trkpt>
      <trkpt lat="44.20666" lon="5.74738">
        <ele>1465</ele>
        <time>2016-11-21T14:42:52Z</time>
      </trkpt>
      <trkpt lat="44.20901" lon="5.74814">
        <ele>1448</ele>
        <time>2016-11-21T14:44:52Z</time>
      </trkpt>
      <trkpt lat="44.20983" lon="5.75198">
        <ele>1354</ele>
        <time>2016-11-21T14:46:52Z</time>
      </trkpt>
      <trkpt lat="44.20961" lon="5.75367">
        <ele>1310</ele>
        <time>2016-11-21T14:48:52Z</time>
      </trkpt>
      <trkpt lat="44.20984" lon="5.75489">
        <ele>1290</ele>
        <time>2016-11-21T14:50:52Z</time>
      </trkpt>
      <trkpt lat="44.2089" lon="5.75548">
        <ele>1281</ele>
        <time>2016-11-21T14:52:52Z</time>
      </trkpt>
      <trkpt lat="44.20647" lon="5.76007">
        <ele>1263</ele>
        <time>2016-11-21T14:54:52Z</time>
      </trkpt>
      <trkpt lat="44.20429" lon="5.76162">
        <ele>1236</ele>
        <time>2016-11-21T14:56:52Z</time>
      </trkpt>
      <trkpt lat="44.20287" lon="5.76488">
        <ele>1248</ele>
        <time>2016-11-21T14:58:52Z</time>
      </trkpt>
      <trkpt lat="44.20134" lon="5.76531">
        <ele>1221</ele>
        <time>2016-11-21T15:00:52Z</time>
      </trkpt>
      <trkpt lat="44.19992" lon="5.76681">
        <ele>1221</ele>
        <time>2016-11-21T15:02:52Z</time>
      </trkpt>
      <trkpt lat="44.19777" lon="5.76677">
        <ele>1210</ele>
        <time>2016-11-21T15:04:52Z</time>
      </trkpt>
      <trkpt lat="44.19774" lon="5.7664">
        <ele>1203</ele>
        <time>2016-11-21T15:06:52Z</time>
      </trkpt>
      <trkpt lat="44.19702" lon="5.76646">
        <ele>1210</ele>
        <time>2016-11-21T15:08:52Z</time>
      </trkpt>
      <trkpt lat="44.19669" lon="5.76569">
        <ele>1197</ele>
        <time>2016-11-21T15:10:52Z</time>
      </trkpt>
      <trkpt lat="44.19615" lon="5.76584">
        <ele>1207</ele>
        <time>2016-11-21T15:12:52Z</time>
      </trkpt>
      <trkpt lat="44.1956" lon="5.76502">
        <ele>1200</ele>
        <time>2016-11-21T15:14:52Z</time>
      </trkpt>
      <trkpt lat="44.19509" lon="5.76449">
        <ele>1203</ele>
        <time>2016-11-21T15:16:52Z</time>
      </trkpt>
      <trkpt lat="44.19474" lon="5.7609">
        <ele>1187</ele>
        <time>2016-11-21T15:18:52Z</time>
      </trkpt>
      <trkpt lat="44.19434" lon="5.76144">
        <ele>1191</ele>
        <time>2016-11-21T15:20:52Z</time>
      </trkpt>
      <trkpt lat="44.193" lon="5.7638">
        <ele>1181</ele>
        <time>2016-11-21T15:22:52Z</time>
      </trkpt>
      <trkpt lat="44.19155" lon="5.76674">
        <ele>1148</ele>
        <time>2016-11-21T15:24:52Z</time>
      </trkpt>
      <trkpt lat="44.19071" lon="5.76936">
        <ele>1128</ele>
        <time>2016-11-21T15:26:52Z</time>
      </trkpt>
      <trkpt lat="44.18969" lon="5.77092">
        <ele>1108</ele>
        <time>2016-11-21T15:28:52Z</time>
      </trkpt>
      <trkpt lat="44.18718" lon="5.77475">
        <ele>1075</ele>
        <time>2016-11-21T15:30:52Z</time>
      </trkpt>
      <trkpt lat="44.18697" lon="5.77621">
        <ele>1077</ele>
        <time>2016-11-21T15:32:52Z</time>
      </trkpt>
      <trkpt lat="44.18453" lon="5.78115">
        <ele>1028</ele>
        <time>2016-11-21T15:34:52Z</time>
      </trkpt>
      <trkpt lat="44.18429" lon="5.78029">
        <ele>1015</ele>
        <time>2016-11-21T15:36:52Z</time>
      </trkpt>
      <trkpt lat="44.18358" lon="5.78278">
        <ele>993</ele>
        <time>2016-11-21T15:38:52Z</time>
      </trkpt>
      <trkpt lat="44.18296" lon="5.78248">
        <ele>983</ele>
        <time>2016-11-21T15:40:52Z</time>
      </trkpt>
      <trkpt lat="44.1833" lon="5.78548">
        <ele>943</ele>
        <time>2016-11-21T15:42:52Z</time>
      </trkpt>
      <trkpt lat="44.183" lon="5.78776">
        <ele>914</ele>
        <time>2016-11-21T15:44:52Z</time>
      </trkpt>
      <trkpt lat="44.18392" lon="5.78728">
        <ele>912</ele>
        <time>2016-11-21T15:46:52Z</time>
      </trkpt>
      <trkpt lat="44.18623" lon="5.78909">
        <ele>883</ele>
        <time>2016-11-21T15:48:52Z</time>
      </trkpt>
      <trkpt lat="44.18647" lon="5.79059">
        <ele>872</ele>
        <time>2016-11-21T15:50:52Z</time>
      </trkpt>
      <trkpt lat="44.1878" lon="5.79183">
        <ele>875</ele>
        <time>2016-11-21T15:52:52Z</time>
      </trkpt>
      <trkpt lat="44.18647" lon="5.79376">
        <ele>844</ele>
        <time>2016-11-21T15:54:52Z</time>
      </trkpt>
      <trkpt lat="44.18595" lon="5.79505">
        <ele>829</ele>
        <time>2016-11-21T15:56:52Z</time>
      </trkpt>
      <trkpt lat="44.18533" lon="5.79514">
        <ele>822</ele>
        <time>2016-11-21T15:58:52Z</time>
      </trkpt>
      <trkpt lat="44.18512" lon="5.79587">
        <ele>815</ele>
        <time>2016-11-21T16:00:52Z</time>
      </trkpt>
      <trkpt lat="44.18546" lon="5.79767">
        <ele>814</ele>
        <time>2016-11-21T16:02:52Z</time>
      </trkpt>
      <trkpt lat="44.18521" lon="5.79934">
        <ele>812</ele>
        <time>2016-11-21T16:04:52Z</time>
      </trkpt>
      <trkpt lat="44.18515" lon="5.8017">
        <ele>821</ele>
        <time>2016-11-21T16:06:52Z</time>
      </trkpt>
      <trkpt lat="44.18647" lon="5.80329">
        <ele>848</ele>
        <time>2016-11-21T16:08:52Z</time>
      </trkpt>
      <trkpt lat="44.18746" lon="5.80647">
        <ele>889</ele>
        <time>2016-11-21T16:10:52Z</time>
      </trkpt>
      <trkpt lat="44.1874" lon="5.80732">
        <ele>901</ele>
        <time>2016-11-21T16:12:52Z</time>
      </trkpt>
      <trkpt lat="44.18623" lon="5.80827">
        <ele>919</ele>
        <time>2016-11-21T16:14:52Z</time>
      </trkpt>
      <trkpt lat="44.18678" lon="5.81054">
        <ele>911</ele>
        <time>2016-11-21T16:16:52Z</time>
      </trkpt>
      <trkpt lat="44.18743" lon="5.81243">
        <ele>904</ele>
        <time>2016-11-21T16:18:52Z</time>
      </trkpt>
      <trkpt lat="44.18764" lon="5.81423">
        <ele>882</ele>
        <time>2016-11-21T16:20:52Z</time>
      </trkpt>
      <trkpt lat="44.1877" lon="5.81651">
        <ele>852</ele>
        <time>2016-11-21T16:22:52Z</time>
      </trkpt>
      <trkpt lat="44.18783" lon="5.8193">
        <ele>829</ele>
        <time>2016-11-21T16:24:52Z</time>
      </trkpt>
      <trkpt lat="44.18857" lon="5.82269">
        <ele>842</ele>
        <time>2016-11-21T16:26:52Z</time>
      </trkpt>
      <trkpt lat="44.18866" lon="5.82535">
        <ele>855</ele>
        <time>2016-11-21T16:28:52Z</time>
      </trkpt>
      <trkpt lat="44.18792" lon="5.82689">
        <ele>871</ele>
        <time>2016-11-21T16:30:52Z</time>
      </trkpt>
      <trkpt lat="44.18669" lon="5.82805">
        <ele>861</ele>
        <time>2016-11-21T16:32:52Z</time>
      </trkpt>
      <trkpt lat="44.18769" lon="5.83036">
        <ele>817</ele>
        <time>2016-11-21T16:34:52Z</time>
      </trkpt>
      <trkpt lat="44.189" lon="5.83086">
        <ele>797</ele>
        <time>2016-11-21T16:36:52Z</time>
      </trkpt>
      <trkpt lat="44.19078" lon="5.8324">
        <ele>767</ele>
        <time>2016-11-21T16:38:52Z</time>
      </trkpt>
      <trkpt lat="44.19074" lon="5.83347">
        <ele>772</ele>
        <time>2016-11-21T16:40:52Z</time>
      </trkpt>
      <trkpt lat="44.19026" lon="5.83292">
        <ele>770</ele>
        <time>2016-11-21T16:42:52Z</time>
      </trkpt>
      <trkpt lat="44.18948" lon="5.83364">
        <ele>783</ele>
        <time>2016-11-21T16:44:52Z</time>
      </trkpt>
      <trkpt lat="44.18809" lon="5.83304">
        <ele>766</ele>
        <time>2016-11-21T16:46:52Z</time>
      </trkpt>
      <trkpt lat="44.18781" lon="5.83339">
        <ele>767</ele>
        <time>2016-11-21T16:48:52Z</time>
      </trkpt>
      <trkpt lat="44.18777" lon="5.83386">
        <ele>777</ele>
        <time>2016-11-21T16:50:52Z</time>
      </trkpt>
      <trkpt lat="44.18729" lon="5.83407">
        <ele>771</ele>
        <time>2016-11-21T16:52:52Z</time>
      </trkpt>
      <trkpt lat="44.18618" lon="5.83474">
        <ele>764</ele>
        <time>2016-11-21T16:54:52Z</time>
      </trkpt>
      <trkpt lat="44.18637" lon="5.83513">
        <ele>783</ele>
        <time>2016-11-21T16:56:52Z</time>
      </trkpt>
      <trkpt lat="44.18534" lon="5.83566">
        <ele>786</ele>
        <time>2016-11-21T16:58:52Z</time>
      </trkpt>
      <trkpt lat="44.18461" lon="5.83622">
        <ele>782</ele>
        <time>2016-11-21T17:00:52Z</time>
      </trkpt>
      <trkpt lat="44.18425" lon="5.83854">
        <ele>764</ele>
        <time>2016-11-21T17:02:52Z</time>
      </trkpt>
      <trkpt lat="44.18446" lon="5.84218">
        <ele>733</ele>
        <time>2016-11-21T17:04:52Z</time>
      </trkpt>
      <trkpt lat="44.18538" lon="5.84349">
        <ele>741</ele>
        <time>2016-11-21T17:06:52Z</time>
      </trkpt>
      <trkpt lat="44.18466" lon="5.84375">
        <ele>728</ele>
        <time>2016-11-21T17:08:52Z</time>
      </trkpt>
      <trkpt lat="44.18449" lon="5.84485">
        <ele>735</ele>
        <time>2016-11-21T17:10:52Z</time>
      </trkpt>
      <trkpt lat="44.18381" lon="5.84628">
        <ele>727</ele>
        <time>2016-11-21T17:12:52Z</time>
      </trkpt>
      <trkpt lat="44.18461" lon="5.84882">
        <ele>731</ele>
        <time>2016-11-21T17:14:52Z</time>
      </trkpt>
      <trkpt lat="44.18548" lon="5.84933">
        <ele>748</ele>
        <time>2016-11-21T17:16:52Z</time>
      </trkpt>
      <trkpt lat="44.18509" lon="5.85047">
        <ele>730</ele>
        <time>2016-11-21T17:18:52Z</time>
      </trkpt>
      <trkpt lat="44.18498" lon="5.85141">
        <ele>728</ele>
        <time>2016-11-21T17:20:52Z</time>
      </trkpt>
      <trkpt lat="44.18472" lon="5.85221">
        <ele>734</ele>
        <time>2016-11-21T17:22:52Z</time>
      </trkpt>
      <trkpt lat="44.18461" lon="5.85294">
        <ele>747</ele>
        <time>2016-11-21T17:24:52Z</time>
      </trkpt>
      <trkpt lat="44.18435" lon="5.85321">
        <ele>747</ele>
        <time>2016-11-21T17:26:52Z</time>
      </trkpt>
      <trkpt lat="44.18386" lon="5.85351">
        <ele>743</ele>
        <time>2016-11-21T17:28:52Z</time>
      </trkpt>
      <trkpt lat="44.18332" lon="5.85549">
        <ele>750</ele>
        <time>2016-11-21T17:30:52Z</time>
      </trkpt>
      <trkpt lat="44.18309" lon="5.85815">
        <ele>744</ele>
        <time>2016-11-21T17:32:52Z</time>
      </trkpt>
      <trkpt lat="44.18337" lon="5.86051">
        <ele>758</ele>
        <time>2016-11-21T17:34:52Z</time>
      </trkpt>
      <trkpt lat="44.1826" lon="5.86285">
        <ele>772</ele>
        <time>2016-11-21T17:36:52Z</time>
      </trkpt>
      <trkpt lat="44.18269" lon="5.86437">
        <ele>774</ele>
        <time>2016-11-21T17:38:52Z</time>
      </trkpt>
      <trkpt lat="44.18283" lon="5.86617">
        <ele>748</ele>
        <time>2016-11-21T17:40:52Z</time>
      </trkpt>
      <trkpt lat="44.18375" lon="5.86682">
        <ele>747</ele>
        <time>2016-11-21T17:42:52Z</time>
      </trkpt>
      <trkpt lat="44.18398" lon="5.86819">
        <ele>730</ele>
        <time>2016-11-21T17:44:52Z</time>
      </trkpt>
      <trkpt lat="44.18394" lon="5.86963">
        <ele>718</ele>
        <time>2016-11-21T17:46:52Z</time>
      </trkpt>
      <trkpt lat="44.18385" lon="5.87242">
        <ele>691</ele>
        <time>2016-11-21T17:48:52Z</time>
      </trkpt>
      <trkpt lat="44.18468" lon="5.87399">
        <ele>683</ele>
        <time>2016-11-21T17:50:52Z</time>
      </trkpt>
      <trkpt lat="44.1861" lon="5.87329">
        <ele>707</ele>
        <time>2016-11-21T17:52:52Z</time>
      </trkpt>
      <trkpt lat="44.18921" lon="5.87165">
        <ele>744</ele>
        <time>2016-11-21T17:54:52Z</time>
      </trkpt>
      <trkpt lat="44.1902" lon="5.87187">
        <ele>724</ele>
        <time>2016-11-21T17:56:52Z</time>
      </trkpt>
      <trkpt lat="44.19188" lon="5.87027">
        <ele>699</ele>
        <time>2016-11-21T17:58:52Z</time>
      </trkpt>
      <trkpt lat="44.19297" lon="5.86946">
        <ele>698</ele>
        <time>2016-11-21T18:00:52Z</time>
      </trkpt>
      <trkpt lat="44.19343" lon="5.86875">
        <ele>701</ele>
        <time>2016-11-21T18:02:52Z</time>
      </trkpt>
      <trkpt lat="44.19414" lon="5.86834">
        <ele>687</ele>
        <time>2016-11-21T18:04:52Z</time>
      </trkpt>
      <trkpt lat="44.19449" lon="5.86811">
        <ele>673</ele>
        <time>2016-11-21T18:06:52Z</time>
      </trkpt>
      <trkpt lat="44.1949" lon="5.86744">
        <ele>668</ele>
        <time>2016-11-21T18:08:52Z</time>
      </trkpt>
      <trkpt lat="44.19517" lon="5.86699">
        <ele>671</ele>
        <time>2016-11-21T18:10:52Z</time>
      </trkpt>
      <trkpt lat="44.19585" lon="5.86682">
        <ele>652</ele>
        <time>2016-11-21T18:12:52Z</time>
      </trkpt>
      <trkpt lat="44.19665" lon="5.866">
        <ele>639</ele>
        <time>2016-11-21T18:14:52Z</time>
      </trkpt>
      <trkpt lat="44.19762" lon="5.86551">
        <ele>616</ele>
        <time>2016-11-21T18:16:52Z</time>
      </trkpt>
      <trkpt lat="44.19813" lon="5.86547">
        <ele>605</ele>
        <time>2016-11-21T18:18:52Z</time>
      </trkpt>
      <trkpt lat="44.19794" lon="5.86476">
        <ele>612</ele>
        <time>2016-11-21T18:20:52Z</time>
      </trkpt>
      <trkpt lat="44.19799" lon="5.86416">
        <ele>613</ele>
        <time>2016-11-21T18:22:52Z</time>
      </trkpt>
      <trkpt lat="44.1983" lon="5.86403">
        <ele>607</ele>
        <time>2016-11-21T18:24:52Z</time>
      </trkpt>
      <trkpt lat="44.19871" lon="5.86493">
        <ele>597</ele>
        <time>2016-11-21T18:26:52Z</time>
      </trkpt>
      <trkpt lat="44.19951" lon="5.86542">
        <ele>592</ele>
        <time>2016-11-21T18:28:52Z</time>
      </trkpt>
      <trkpt lat="44.20042" lon="5.86575">
        <ele>581</ele>
        <time>2016-11-21T18:30:52Z</time>
      </trkpt>
      <trkpt lat="44.2013" lon="5.86566">
        <ele>574</ele>
        <time>2016-11-21T18:32:52Z</time>
      </trkpt>
      <trkpt lat="44.20191" lon="5.86598">
        <ele>570</ele>
        <time>2016-11-21T18:34:52Z</time>
      </trkpt>
      <trkpt lat="44.20311" lon="5.86785">
        <ele>544</ele>
        <time>2016-11-21T18:36:52Z</time>
      </trkpt>
      <trkpt lat="44.2038" lon="5.86908">
        <ele>531</ele>
        <time>2016-11-21T18:38:52Z</time>
      </trkpt>
      <trkpt lat="44.20602" lon="5.86811">
        <ele>524</ele>
        <time>2016-11-21T18:40:52Z</time>
      </trkpt>
      <trkpt lat="44.20842" lon="5.86631">
        <ele>522</ele>
        <time>2016-11-21T18:42:52Z</time>
      </trkpt>
      <trkpt lat="44.21334" lon="5.86382">
        <ele>518</ele>
        <time>2016-11-21T18:44:52Z</time>
      </trkpt>
      <trkpt lat="44.21589" lon="5.86299">
        <ele>515</ele>
        <time>2016-11-21T18:46:52Z</time>
      </trkpt>
      <trkpt lat="44.21715" lon="5.86191">
        <ele>514</ele>
        <time>2016-11-21T18:48:52Z</time>
      </trkpt>
      <trkpt lat="44.21857" lon="5.86183">
        <ele>514</ele>
        <time>2016-11-21T18:50:52Z</time>
      </trkpt>
      <trkpt lat="44.22032" lon="5.86028">
        <ele>518</ele>
        <time>2016-11-21T18:52:52Z</time>
      </trkpt>
      <trkpt lat="44.2218" lon="5.85921">
        <ele>520</ele>
        <time>2016-11-21T18:54:52Z</time>
      </trkpt>
      <trkpt lat="44.22278" lon="5.85887">
        <ele>521</ele>
        <time>2016-11-21T18:56:52Z</time>
      </trkpt>
      <trkpt lat="44.2229" lon="5.85985">
        <ele>518</ele>
        <time>2016-11-21T18:58:52Z</time>
      </trkpt>
      <trkpt lat="44.22267" lon="5.86098">
        <ele>516</ele>
        <time>2016-11-21T19:00:52Z</time>
      </trkpt>
      <trkpt lat="44.2218" lon="5.8615">
        <ele>517</ele>
        <time>2016-11-21T19:02:52Z</time>
      </trkpt>
      <trkpt lat="44.22097" lon="5.862">
        <ele>515</ele>
        <time>2016-11-21T19:04:52Z</time>
      </trkpt>
      <trkpt lat="44.22108" lon="5.86246">
        <ele>515</ele>
        <time>2016-11-21T19:06:52Z</time>
      </trkpt>
    </trkseg>
  </trk>
</gpx>